Terminal Aerodrome Forecast
Issued by NWS

Home | Current Version | Previous Version | Text Only | Print | Product List | Glossary On
Versions: 1 2 3 4 5 6 7 8 9 10 11
000
FTUS41 KBTV 280908 AAA
TAFMSS
TAF AMD
KMSS 280908Z 2809/2906 23015G25KT P6SM -SHRA OVC035
      TEMPO 2809/2812 5SM -RA BKN015 OVC025
     FM281400 26012G20KT P6SM BKN035 OVC040
     FM282100 27009KT P6SM BKN040=

USA.gov is the U.S. government's official web portal to all federal, state and local government web resources and services.